Time;durP1;ratioP1;P1;durP2;ratioP2;P2;SDS_P1;SDS_P2;PMS_P1;PMS_P2;Temp;Humidity;BMP_temperature;BMP_pressure;BME280_temperature;BME280_humidity;BME280_pressure;Samples;Min_cycle;Max_cycle;Signal;HPM_P1;HPM_P2
2023/09/26 00:00:20;;;;;;;12.77;7.40;;;;;;;20.26;52.42;101702.19;6027386;23;20027;-82
2023/09/26 00:02:52;;;;;;;16.67;7.00;;;;;;;20.95;52.03;101804.16;6023812;23;20037;-81
2023/09/26 00:05:24;;;;;;;12.80;6.40;;;;;;;20.87;52.24;101805.00;6039209;23;20019;-82
2023/09/26 00:08:02;;;;;;;14.57;6.57;;;;;;;20.78;52.27;101791.72;6031641;23;20456;-84
2023/09/26 00:10:32;;;;;;;18.38;8.05;;;;;;;20.64;52.18;101771.72;6032834;23;20034;-81
2023/09/26 00:13:00;;;;;;;13.90;7.38;;;;;;;20.54;52.37;101760.28;6036232;23;20442;-82
2023/09/26 00:15:27;;;;;;;17.23;7.22;;;;;;;20.75;52.55;101808.28;6057046;23;20027;-82
2023/09/26 00:17:57;;;;;;;12.20;6.95;;;;;;;20.82;52.33;101809.25;6036690;23;20030;-83
2023/09/26 00:20:28;;;;;;;15.73;7.18;;;;;;;20.62;52.49;101784.53;6044672;23;20154;-83
2023/09/26 00:22:55;;;;;;;18.88;7.45;;;;;;;20.28;52.33;101727.13;6032721;23;20463;-81
2023/09/26 00:25:28;;;;;;;13.65;6.97;;;;;;;20.60;52.38;101779.31;6030053;23;20019;-82
2023/09/26 00:27:55;;;;;;;12.85;6.90;;;;;;;19.98;52.44;101696.38;6041359;23;20070;-82
2023/09/26 00:30:27;;;;;;;17.70;7.93;;;;;;;20.17;52.23;101714.03;6037778;23;20026;-81
2023/09/26 00:32:55;;;;;;;11.07;7.10;;;;;;;20.54;52.38;101793.47;6040089;23;20022;-81
2023/09/26 00:35:22;;;;;;;14.75;6.93;;;;;;;19.92;51.91;101666.59;6026838;23;20496;-82
2023/09/26 00:37:50;;;;;;;11.23;6.75;;;;;;;20.72;51.87;101803.22;6067007;23;20481;-81
2023/09/26 00:40:22;;;;;;;11.75;6.95;;;;;;;20.54;52.09;101780.00;6046235;23;20018;-79
2023/09/26 00:42:49;;;;;;;;;;;;;;;20.56;52.48;101809.50;6045587;23;20182;-80
2023/09/26 00:45:17;;;;;;;19.00;7.22;;;;;;;19.88;52.45;101702.97;6040902;23;20166;-81
2023/09/26 00:47:48;;;;;;;14.18;7.63;;;;;;;19.12;52.80;101594.59;5994487;23;20109;-82
2023/09/26 00:50:18;;;;;;;11.18;6.57;;;;;;;20.10;53.01;101761.56;6042778;23;20138;-85
2023/09/26 00:52:53;;;;;;;16.25;8.23;;;;;;;20.20;53.11;101783.78;6030529;23;20101;-81
2023/09/26 00:55:24;;;;;;;12.63;7.03;;;;;;;20.43;53.11;101820.81;6027458;23;20030;-80
2023/09/26 00:57:52;;;;;;;12.00;7.70;;;;;;;20.36;53.30;101812.56;6036483;23;20208;-84
2023/09/26 01:00:23;;;;;;;;;;;;;;;20.28;53.76;101829.59;6029533;23;20102;-80
2023/09/26 01:02:57;;;;;;;27.77;10.15;;;;;;;19.95;53.50;101753.34;6034876;23;19917;-81
2023/09/26 01:05:29;;;;;;;23.27;8.68;;;;;;;20.09;53.50;101770.66;6060663;23;20094;-82
2023/09/26 01:07:57;;;;;;;13.20;8.30;;;;;;;20.12;53.51;101781.06;6066906;23;20347;-81
2023/09/26 01:10:24;;;;;;;12.52;8.20;;;;;;;20.18;53.61;101785.81;6030976;23;20119;-80
2023/09/26 01:12:55;;;;;;;14.57;8.43;;;;;;;19.83;53.46;101738.50;6026332;23;20454;-81
2023/09/26 01:15:30;;;;;;;14.75;8.23;;;;;;;20.21;54.00;101801.63;6032465;23;20024;-82
2023/09/26 01:17:57;;;;;;;12.77;7.93;;;;;;;20.25;53.68;101808.38;6033391;23;20485;-82
2023/09/26 01:20:28;;;;;;;11.95;8.00;;;;;;;19.67;54.04;101728.56;6039192;23;20449;-81
2023/09/26 01:23:02;;;;;;;15.63;7.93;;;;;;;20.13;54.42;101803.50;6046357;23;20022;-83
2023/09/26 01:25:29;;;;;;;12.88;7.88;;;;;;;20.13;54.35;101798.13;6089809;23;20701;-82
2023/09/26 01:28:01;;;;;;;15.20;8.93;;;;;;;20.16;54.08;101800.47;6055336;23;20231;-83
2023/09/26 01:30:30;;;;;;;16.10;8.38;;;;;;;20.06;53.99;101774.53;6052157;23;20043;-81
2023/09/26 01:32:57;;;;;;;16.17;8.90;;;;;;;19.88;54.08;101757.72;6062337;23;20026;-83
2023/09/26 01:35:27;;;;;;;13.23;8.90;;;;;;;19.95;53.90;101749.78;6028956;23;20026;-81
2023/09/26 01:37:55;;;;;;;13.80;7.97;;;;;;;19.24;54.03;101636.31;6041715;23;20022;-80
2023/09/26 01:40:22;;;;;;;16.77;9.48;;;;;;;20.03;53.87;101771.34;6027415;23;20438;-81
2023/09/26 01:42:49;;;;;;;18.02;9.05;;;;;;;19.88;54.07;101767.63;6064938;23;20355;-80
2023/09/26 01:45:16;;;;;;;14.98;8.18;;;;;;;19.79;54.31;101756.88;6041997;23;20038;-81
2023/09/26 01:47:51;;;;;;;15.32;9.10;;;;;;;20.11;53.77;101806.38;6059157;23;20014;-80
2023/09/26 01:50:21;;;;;;;13.68;7.75;;;;;;;20.00;54.41;101793.22;6063389;23;20018;-82
2023/09/26 01:52:49;;;;;;;19.48;9.25;;;;;;;19.95;54.53;101782.97;6065164;23;20168;-81
2023/09/26 01:55:20;;;;;;;18.58;9.77;;;;;;;19.97;54.56;101796.25;6057258;23;20030;-82
2023/09/26 01:57:48;;;;;;;12.35;8.68;;;;;;;18.66;54.55;101578.06;6017771;23;20085;-81
2023/09/26 02:00:17;;;;;;;15.02;9.35;;;;;;;19.15;54.79;101653.47;6028359;23;20328;-83
2023/09/26 02:02:49;;;;;;;14.85;9.32;;;;;;;19.38;54.21;101676.03;6051589;23;20342;-81
2023/09/26 02:05:22;;;;;;;16.60;9.55;;;;;;;19.82;54.63;101767.28;6037996;23;20380;-81
2023/09/26 02:07:50;;;;;;;15.45;9.02;;;;;;;19.90;54.74;101788.00;6046216;23;20281;-81
2023/09/26 02:10:17;;;;;;;12.73;8.57;;;;;;;19.67;54.62;101733.94;6043718;23;20376;-82
2023/09/26 02:12:46;;;;;;;17.83;9.10;;;;;;;19.96;54.60;101781.13;6045129;23;20026;-80
2023/09/26 02:15:15;;;;;;;15.45;9.05;;;;;;;19.48;54.12;101701.97;6028224;23;20471;-81
2023/09/26 02:17:42;;;;;;;13.10;9.15;;;;;;;19.96;54.46;101792.72;6020870;23;20518;-82
2023/09/26 02:20:12;;;;;;;14.85;9.45;;;;;;;19.89;55.04;101785.50;6038716;23;20022;-81
2023/09/26 02:22:51;;;;;;;14.93;8.40;;;;;;;19.14;55.08;101684.94;6035952;23;20359;-81
2023/09/26 02:25:19;;;;;;;15.18;9.32;;;;;;;19.79;55.03;101797.28;6027962;23;20022;-80
2023/09/26 02:27:48;;;;;;;16.20;9.57;;;;;;;19.81;54.97;101784.50;6052903;23;20015;-80
2023/09/26 02:30:24;;;;;;;17.65;8.95;;;;;;;19.82;54.80;101791.53;6027054;23;20371;-80
2023/09/26 02:32:54;;;;;;;16.58;9.18;;;;;;;19.90;54.74;101787.16;6033514;23;20019;-82
2023/09/26 02:35:21;;;;;;;13.05;8.60;;;;;;;19.78;54.97;101778.56;6035981;23;20201;-82
2023/09/26 02:37:48;;;;;;;16.08;9.73;;;;;;;19.56;55.02;101750.44;6034576;23;20114;-83
2023/09/26 02:40:21;;;;;;;15.25;9.50;;;;;;;19.58;54.71;101740.34;6042594;23;20106;-82
2023/09/26 02:42:50;;;;;;;17.05;9.00;;;;;;;19.52;54.90;101733.78;6033766;23;20019;-80
2023/09/26 02:45:17;;;;;;;17.35;9.40;;;;;;;19.68;54.80;101757.19;6049534;23;20026;-82
2023/09/26 02:47:46;;;;;;;18.95;9.52;;;;;;;19.79;54.66;101775.72;6027927;23;20022;-82
2023/09/26 02:50:13;;;;;;;14.07;8.88;;;;;;;19.49;54.90;101727.88;6033597;23;20211;-82
2023/09/26 02:52:43;;;;;;;13.65;8.65;;;;;;;19.49;54.87;101733.25;6029907;23;20371;-79
2023/09/26 02:55:10;;;;;;;17.65;9.20;;;;;;;18.47;54.61;101553.16;6012003;23;20622;-81
2023/09/26 02:57:40;;;;;;;20.50;10.27;;;;;;;19.75;54.68;101768.97;6023723;23;20372;-82
2023/09/26 03:00:16;;;;;;;15.63;8.52;;;;;;;19.76;54.80;101776.06;6027425;23;20042;-81
2023/09/26 03:02:45;;;;;;;17.63;8.50;;;;;;;19.71;54.86;101775.75;6033889;23;20044;-80
2023/09/26 03:05:16;;;;;;;12.20;8.45;;;;;;;19.81;54.60;101773.72;5972178;23;20191;-80
2023/09/26 03:07:48;;;;;;;14.13;8.52;;;;;;;19.70;54.31;101743.56;5978193;23;20686;-81
2023/09/26 03:10:23;;;;;;;10.88;7.95;;;;;;;19.60;54.65;101738.31;5969358;23;20529;-82
2023/09/26 03:12:53;;;;;;;16.88;9.55;;;;;;;19.75;54.95;101770.84;6021842;23;20078;-80
2023/09/26 03:15:20;;;;;;;14.18;8.70;;;;;;;19.81;54.54;101764.78;6025549;23;20337;-82
2023/09/26 03:17:47;;;;;;;12.32;8.88;;;;;;;19.75;54.82;101773.53;6029572;23;20027;-82
2023/09/26 03:20:15;;;;;;;16.95;8.48;;;;;;;19.76;54.46;101769.84;6036744;23;20409;-83
2023/09/26 03:22:46;;;;;;;10.65;8.02;;;;;;;19.14;55.10;101674.16;6008616;23;20082;-81
2023/09/26 03:25:13;;;;;;;12.55;8.68;;;;;;;19.00;54.72;101655.97;6035960;23;20065;-82
2023/09/26 03:27:48;;;;;;;15.40;8.35;;;;;;;19.58;55.05;101756.50;6028527;23;20508;-80
2023/09/26 03:30:25;;;;;;;17.80;8.85;;;;;;;19.68;54.82;101777.91;6002448;23;20022;-82
2023/09/26 03:32:58;;;;;;;16.67;8.45;;;;;;;19.65;55.27;101774.50;6007946;23;20065;-82
2023/09/26 03:35:28;;;;;;;14.07;8.68;;;;;;;19.65;55.22;101770.97;6029915;23;20026;-81
2023/09/26 03:37:55;;;;;;;13.93;7.85;;;;;;;19.61;55.02;101783.09;6028694;23;20058;-79
2023/09/26 03:40:22;;;;;;;13.40;8.23;;;;;;;19.64;55.28;101788.16;6021254;23;20439;-81
2023/09/26 03:42:49;;;;;;;11.00;8.27;;;;;;;19.62;55.11;101782.09;6055538;23;20039;-80
2023/09/26 03:45:16;;;;;;;14.35;8.15;;;;;;;19.30;55.05;101737.97;6028070;23;20034;-80
2023/09/26 03:47:43;;;;;;;14.63;9.05;;;;;;;19.58;55.22;101767.25;6050611;23;20022;-80
2023/09/26 03:50:12;;;;;;;12.52;9.02;;;;;;;18.93;54.74;101645.06;6030762;23;20023;-80
2023/09/26 03:52:39;;;;;;;16.00;8.52;;;;;;;19.67;54.90;101765.44;6031377;23;20105;-82
2023/09/26 03:55:06;;;;;;;16.15;9.75;;;;;;;19.12;54.91;101669.97;6020534;23;20033;-81
2023/09/26 03:57:33;;;;;;;12.43;8.05;;;;;;;19.32;55.04;101713.53;6035302;23;20014;-80
2023/09/26 04:00:07;;;;;;;11.32;8.18;;;;;;;19.57;55.38;101768.28;6031954;23;20299;-80
2023/09/26 04:02:35;;;;;;;13.45;9.40;;;;;;;19.29;55.66;101740.81;6051726;23;20029;-80
2023/09/26 04:05:02;;;;;;;17.77;8.43;;;;;;;19.49;55.74;101779.91;6039279;23;20087;-82
2023/09/26 04:07:29;;;;;;;14.15;8.18;;;;;;;19.43;56.03;101783.25;6017121;23;20027;-81
2023/09/26 04:10:01;;;;;;;16.48;8.05;;;;;;;18.90;56.21;101695.66;6038484;23;20070;-82
2023/09/26 04:12:29;;;;;;;10.85;7.68;;;;;;;19.23;56.62;101757.66;6055940;23;20022;-81
2023/09/26 04:14:56;;;;;;;14.95;8.70;;;;;;;19.38;56.18;101778.34;6029353;23;20788;-83
2023/09/26 04:17:24;;;;;;;13.23;8.20;;;;;;;19.27;56.26;101765.19;6021231;23;20027;-81
2023/09/26 04:19:51;;;;;;;12.60;8.27;;;;;;;19.35;56.52;101789.47;6029798;23;20538;-82
2023/09/26 04:22:18;;;;;;;18.27;9.32;;;;;;;19.32;56.31;101794.31;6022116;23;20369;-83
2023/09/26 04:24:45;;;;;;;16.60;8.80;;;;;;;18.99;56.64;101743.09;5965716;23;20023;-81
2023/09/26 04:27:12;;;;;;;12.77;8.60;;;;;;;19.26;56.71;101785.06;5969133;23;20224;-81
2023/09/26 04:29:39;;;;;;;13.07;8.77;;;;;;;19.33;56.34;101788.78;6018810;23;20285;-82
2023/09/26 04:32:06;;;;;;;15.38;8.98;;;;;;;19.25;56.55;101783.38;6036184;23;20402;-83
2023/09/26 04:34:33;;;;;;;15.27;9.52;;;;;;;19.18;56.55;101768.91;6036566;23;20026;-81
2023/09/26 04:37:01;;;;;;;17.98;9.27;;;;;;;19.20;56.83;101780.34;6027761;23;20018;-80
2023/09/26 04:39:28;;;;;;;11.45;8.68;;;;;;;19.18;56.36;101767.03;6040202;23;20483;-81
2023/09/26 04:41:56;;;;;;;14.13;8.85;;;;;;;19.26;56.32;101790.44;6046182;23;20030;-79
2023/09/26 04:44:23;;;;;;;16.98;9.82;;;;;;;19.26;56.32;101781.53;6040702;23;20122;-82
2023/09/26 04:46:51;;;;;;;17.50;9.88;;;;;;;19.31;56.40;101788.09;6046938;23;20015;-82
2023/09/26 04:49:19;;;;;;;14.85;10.05;;;;;;;18.96;56.58;101741.59;6038845;23;20256;-81
2023/09/26 04:51:46;;;;;;;16.55;9.07;;;;;;;18.43;56.73;101675.47;6040398;23;20023;-81
2023/09/26 04:54:13;;;;;;;15.90;9.27;;;;;;;19.00;56.83;101769.00;6040322;23;20026;-79
2023/09/26 04:56:40;;;;;;;18.70;9.60;;;;;;;18.04;56.73;101611.47;6038055;23;20073;-82
2023/09/26 04:59:06;;;;;;;20.58;9.68;;;;;;;18.53;56.92;101691.47;6051470;23;20339;-81
2023/09/26 05:01:33;;;;;;;10.65;8.50;;;;;;;17.66;57.13;101553.66;6039675;23;20180;-82
2023/09/26 05:04:01;;;;;;;15.50;9.30;;;;;;;18.84;57.56;101753.66;6049970;23;20027;-82
2023/09/26 05:06:29;;;;;;;14.57;10.15;;;;;;;18.60;56.98;101707.81;6042717;23;20023;-81
2023/09/26 05:08:56;;;;;;;14.75;9.65;;;;;;;17.78;57.65;101589.16;6043640;23;20459;-81
2023/09/26 05:11:23;;;;;;;14.20;9.40;;;;;;;18.77;57.69;101764.22;6036040;23;20034;-81
2023/09/26 05:13:50;;;;;;;12.98;9.48;;;;;;;18.95;57.92;101782.94;6040956;23;20019;-80
2023/09/26 05:16:18;;;;;;;17.02;10.05;;;;;;;17.72;57.45;101586.09;6038929;23;20019;-82
2023/09/26 05:18:46;;;;;;;19.02;10.93;;;;;;;19.07;57.45;101779.97;6028051;23;20030;-80
2023/09/26 05:21:13;;;;;;;19.98;11.85;;;;;;;18.20;56.98;101631.34;6041084;23;20266;-80
2023/09/26 05:23:40;;;;;;;17.77;10.60;;;;;;;19.03;57.28;101778.59;6044397;23;20102;-79
2023/09/26 05:26:11;;;;;;;19.65;10.48;;;;;;;19.08;57.37;101784.31;6038673;23;20046;-78
2023/09/26 05:28:40;;;;;;;16.33;10.15;;;;;;;18.90;57.70;101763.75;6041574;23;20561;-80
2023/09/26 05:31:09;;;;;;;18.70;9.98;;;;;;;19.12;56.98;101781.16;6038583;23;20027;-81
2023/09/26 05:33:36;;;;;;;14.80;9.68;;;;;;;19.16;57.01;101778.97;6036005;23;20053;-79
2023/09/26 05:36:04;;;;;;;18.05;10.57;;;;;;;19.13;57.15;101774.78;6024995;23;20023;-83
2023/09/26 05:38:31;;;;;;;14.75;9.80;;;;;;;19.17;57.14;101770.72;6042937;23;20326;-82
2023/09/26 05:40:58;;;;;;;19.20;10.60;;;;;;;18.95;57.18;101739.88;6044128;23;20050;-82
2023/09/26 05:43:26;;;;;;;23.48;10.50;;;;;;;19.15;57.38;101778.16;6033656;23;20939;-80
2023/09/26 05:45:53;;;;;;;18.65;10.73;;;;;;;19.24;57.13;101776.31;6028065;23;20342;-80
2023/09/26 05:48:26;;;;;;;15.35;9.02;;;;;;;19.29;57.25;101787.41;6038543;23;20148;-81
2023/09/26 05:51:02;;;;;;;15.15;10.02;;;;;;;19.36;57.16;101782.22;6047075;23;20460;-79
2023/09/26 05:53:30;;;;;;;17.25;9.98;;;;;;;18.52;56.99;101644.94;6023684;23;20463;-81
2023/09/26 05:55:58;;;;;;;15.88;10.20;;;;;;;19.27;57.16;101765.19;6021400;23;20482;-83
2023/09/26 05:58:25;;;;;;;17.63;9.25;;;;;;;19.00;56.86;101729.50;6016940;23;20023;-82
2023/09/26 06:00:53;;;;;;;16.90;10.45;;;;;;;18.85;56.84;101698.00;6037190;23;20058;-82
2023/09/26 06:03:27;;;;;;;17.92;9.82;;;;;;;19.29;56.82;101767.72;6069951;23;20026;-82
2023/09/26 06:06:03;;;;;;;17.35;8.45;;;;;;;19.55;56.75;101795.38;6086885;23;20030;-82
2023/09/26 06:08:31;;;;;;;15.75;9.13;;;;;;;18.22;56.86;101594.41;6046644;23;20034;-83
2023/09/26 06:10:57;;;;;;;10.88;8.88;;;;;;;19.58;56.84;101794.19;6045849;23;20022;-82
2023/09/26 06:13:28;;;;;;;17.08;9.85;;;;;;;19.49;56.41;101765.56;6026007;23;20054;-82
2023/09/26 06:15:58;;;;;;;15.30;9.90;;;;;;;19.37;56.12;101730.91;6037527;23;20355;-82
2023/09/26 06:18:27;;;;;;;19.55;8.85;;;;;;;19.16;55.82;101687.47;6050654;23;20026;-79
2023/09/26 06:20:53;;;;;;;13.38;8.95;;;;;;;18.97;56.08;101662.53;6048021;23;20473;-81
2023/09/26 06:23:23;;;;;;;16.08;9.30;;;;;;;19.50;56.34;101751.13;6044869;23;20279;-81
2023/09/26 06:25:58;;;;;;;16.42;8.68;;;;;;;19.80;55.59;101780.09;6040098;23;20034;-78
2023/09/26 06:28:26;;;;;;;12.93;8.88;;;;;;;19.81;55.99;101789.88;6049770;23;20093;-79
2023/09/26 06:30:56;;;;;;;12.57;8.45;;;;;;;19.75;56.00;101790.53;6039306;23;20101;-79
2023/09/26 06:33:22;;;;;;;13.13;9.05;;;;;;;19.84;56.02;101784.16;6028772;23;20116;-80
2023/09/26 06:35:51;;;;;;;16.15;9.13;;;;;;;19.62;55.88;101756.00;6033083;23;20029;-78
2023/09/26 06:38:17;;;;;;;11.90;8.43;;;;;;;19.43;55.40;101707.84;6018591;23;20054;-79
2023/09/26 06:40:45;;;;;;;15.05;9.15;;;;;;;19.79;55.56;101775.72;6042772;23;20448;-79
2023/09/26 06:43:12;;;;;;;12.90;8.38;;;;;;;19.83;56.14;101787.84;6017516;23;20026;-78
2023/09/26 06:45:39;;;;;;;15.80;9.77;;;;;;;19.63;55.58;101732.59;5988464;23;20101;-79
2023/09/26 06:48:06;;;;;;;19.98;9.10;;;;;;;19.92;55.92;101790.53;6085311;23;20030;-81
2023/09/26 06:50:41;;;;;;;12.35;9.15;;;;;;;19.80;56.10;101769.31;6037304;23;20035;-80
2023/09/26 06:53:09;;;;;;;15.70;9.35;;;;;;;19.98;56.00;101787.19;6020047;23;20442;-80
2023/09/26 06:55:39;;;;;;;16.92;9.02;;;;;;;20.08;55.62;101784.31;6000394;23;20026;-82
2023/09/26 06:58:12;;;;;;;14.60;8.75;;;;;;;19.93;55.80;101771.53;6034996;23;20045;-82
2023/09/26 07:00:40;;;;;;;16.13;9.30;;;;;;;19.94;55.72;101745.41;6035404;23;20022;-83
2023/09/26 07:03:07;;;;;;;14.15;8.77;;;;;;;20.15;55.41;101779.94;6036736;23;20097;-81
2023/09/26 07:05:34;;;;;;;12.98;7.75;;;;;;;20.24;55.43;101785.13;6073164;23;20124;-80
2023/09/26 07:08:02;;;;;;;14.40;8.20;;;;;;;20.25;55.27;101776.00;6021385;23;20105;-82
2023/09/26 07:10:37;;;;;;;12.98;8.10;;;;;;;19.88;55.07;101702.97;6028089;23;20026;-84
2023/09/26 07:13:08;;;;;;;16.17;7.35;;;;;;;20.10;55.34;101750.78;6028107;23;20025;-80
2023/09/26 07:15:58;;;;;;;18.25;9.38;;;;;;;19.49;55.53;101656.03;6038310;23;20349;-83
2023/09/26 07:18:25;;;;;;;15.43;8.10;;;;;;;20.33;55.98;101783.25;6043615;23;20018;-83
2023/09/26 07:20:53;;;;;;;12.15;8.55;;;;;;;20.10;56.00;101739.13;6040989;23;20152;-81
2023/09/26 07:23:20;;;;;;;12.98;7.68;;;;;;;20.41;56.31;101775.16;6070495;23;20459;-81
2023/09/26 07:25:47;;;;;;;13.20;7.93;;;;;;;20.43;55.97;101774.97;6054250;23;20026;-81
2023/09/26 07:28:14;;;;;;;17.70;8.60;;;;;;;20.61;55.49;101783.72;6026435;23;20497;-80
2023/09/26 07:30:44;;;;;;;14.55;8.13;;;;;;;20.72;55.51;101787.88;6034191;23;20443;-82
2023/09/26 07:33:11;;;;;;;12.50;7.55;;;;;;;20.80;55.42;101785.16;6017121;23;20046;-82
2023/09/26 07:35:38;;;;;;;15.85;7.45;;;;;;;20.56;55.72;101759.13;6058820;23;20328;-80
2023/09/26 07:38:09;;;;;;;13.45;7.28;;;;;;;20.67;55.90;101780.31;6024560;23;20019;-81
2023/09/26 07:40:43;;;;;;;11.82;8.15;;;;;;;20.25;55.35;101705.91;6010267;23;20026;-81
2023/09/26 07:43:10;;;;;;;18.80;7.75;;;;;;;20.84;55.26;101796.44;6046080;23;20054;-80
2023/09/26 07:45:43;;;;;;;14.60;7.90;;;;;;;20.20;55.91;101700.19;6035782;23;20348;-80
2023/09/26 07:48:11;;;;;;;14.65;8.30;;;;;;;20.90;55.83;101811.94;6027004;23;20125;-79
2023/09/26 07:50:42;;;;;;;16.90;8.35;;;;;;;20.97;55.70;101804.81;6021295;23;20030;-80
2023/09/26 07:53:09;;;;;;;15.57;7.55;;;;;;;20.33;55.77;101701.50;6041331;23;20049;-82
2023/09/26 07:55:37;;;;;;;17.38;9.20;;;;;;;20.89;56.00;101794.03;6036732;23;20093;-80
2023/09/26 07:58:04;;;;;;;13.43;9.25;;;;;;;20.50;55.67;101727.41;6030919;23;20029;-82
2023/09/26 08:00:31;;;;;;;18.58;10.48;;;;;;;21.08;55.24;101815.22;6019819;23;20517;-81
2023/09/26 08:02:58;;;;;;;15.18;9.82;;;;;;;20.62;55.41;101738.69;6029627;23;20370;-80
2023/09/26 08:05:34;;;;;;;16.58;10.88;;;;;;;20.68;55.45;101729.88;6035144;23;20463;-81
2023/09/26 08:08:08;;;;;;;16.75;10.80;;;;;;;21.15;54.91;101801.03;6009347;23;20391;-81
2023/09/26 08:10:40;;;;;;;19.15;10.20;;;;;;;21.21;55.20;101811.09;6000184;23;20061;-81
2023/09/26 08:13:15;;;;;;;18.65;10.52;;;;;;;19.96;54.78;101595.16;6059107;23;20018;-81
2023/09/26 08:15:42;;;;;;;18.23;10.57;;;;;;;21.10;55.09;101791.59;6038864;23;20106;-81
2023/09/26 08:18:09;;;;;;;19.85;10.85;;;;;;;20.67;55.70;101720.94;6038776;23;20026;-78
2023/09/26 08:20:36;;;;;;;20.20;10.55;;;;;;;20.93;56.16;101768.41;6024392;23;20031;-78
2023/09/26 08:23:05;;;;;;;24.10;10.02;;;;;;;21.22;56.60;101804.69;6039843;23;20345;-81
2023/09/26 08:25:37;;;;;;;14.98;9.05;;;;;;;21.28;56.59;101806.69;6056928;23;20333;-81
2023/09/26 08:28:11;;;;;;;18.58;9.75;;;;;;;21.44;56.15;101809.31;6070421;23;20450;-81
2023/09/26 08:30:49;;;;;;;18.38;10.18;;;;;;;21.53;56.08;101808.25;6011660;23;20027;-78
2023/09/26 08:33:16;;;;;;;16.00;9.85;;;;;;;21.63;56.04;101816.13;6037536;23;20742;-79
2023/09/26 08:35:46;;;;;;;22.05;9.88;;;;;;;21.32;56.29;101772.91;6036968;23;20105;-80
2023/09/26 08:38:19;;;;;;;14.52;8.65;;;;;;;21.51;56.45;101785.97;6032774;23;20054;-80
2023/09/26 08:40:51;;;;;;;15.80;9.23;;;;;;;21.64;56.72;101811.53;6050619;23;20367;-78
2023/09/26 08:43:26;;;;;;;13.52;9.10;;;;;;;21.63;56.46;101788.25;6043213;23;20042;-81
2023/09/26 08:45:59;;;;;;;12.30;8.60;;;;;;;21.71;56.76;101799.00;6039719;23;20030;-81
2023/09/26 08:48:28;;;;;;;12.30;8.65;;;;;;;21.40;56.82;101742.31;6046209;23;20909;-80
2023/09/26 08:50:58;;;;;;;13.98;8.43;;;;;;;21.72;56.49;101788.00;6039619;23;20754;-81
2023/09/26 08:53:25;;;;;;;15.98;8.77;;;;;;;21.64;56.56;101762.91;6023380;23;20116;-79
2023/09/26 08:55:57;;;;;;;15.63;8.63;;;;;;;21.37;56.20;101705.66;6030619;23;20206;-80
2023/09/26 08:58:31;;;;;;;14.38;8.27;;;;;;;22.08;56.20;101800.03;6023580;23;20019;-75
2023/09/26 09:00:58;;;;;;;16.17;8.48;;;;;;;21.92;55.89;101758.59;6022218;23;20037;-76
2023/09/26 09:03:26;;;;;;;15.65;8.98;;;;;;;22.11;56.13;101800.50;6065589;23;20027;-77
2023/09/26 09:05:57;;;;;;;18.98;9.45;;;;;;;22.26;55.85;101808.69;6033050;23;20030;-80
2023/09/26 09:08:25;;;;;;;18.52;10.05;;;;;;;22.45;55.61;101801.03;6061480;23;20081;-80
2023/09/26 09:10:59;;;;;;;18.38;10.68;;;;;;;22.54;55.26;101787.22;6037817;23;20383;-80
2023/09/26 09:13:38;;;;;;;15.82;11.23;;;;;;;22.26;55.07;101716.72;5992691;23;20470;-80
2023/09/26 09:16:20;;;;;;;17.55;9.77;;;;;;;22.37;55.20;101732.47;6021550;23;20324;-81
2023/09/26 09:18:58;;;;;;;16.55;10.35;;;;;;;22.79;55.27;101798.63;6050308;23;20029;-78
2023/09/26 09:21:31;;;;;;;14.38;10.00;;;;;;;22.76;55.53;101780.03;6035591;23;20093;-79
2023/09/26 09:24:06;;;;;;;18.92;9.95;;;;;;;22.45;55.31;101714.44;6058236;23;20371;-77
2023/09/26 09:26:36;;;;;;;12.38;8.38;;;;;;;22.81;55.17;101750.50;6082904;23;20260;-79
2023/09/26 09:29:19;;;;;;;15.23;9.13;;;;;;;23.17;54.67;101773.25;6051635;23;20023;-78
2023/09/26 09:31:51;;;;;;;16.52;8.77;;;;;;;23.19;54.18;101763.91;6089951;23;20038;-79
2023/09/26 09:34:19;;;;;;;;;;;;;;;23.31;54.40;101802.19;6057006;23;20159;-79
2023/09/26 09:36:50;;;;;;;17.13;9.98;;;;;;;23.26;54.11;101801.91;6066592;23;20000;-79
2023/09/26 09:39:23;;;;;;;16.15;9.23;;;;;;;23.17;54.02;101782.22;6025656;23;20141;-80
2023/09/26 09:41:57;;;;;;;14.60;9.32;;;;;;;23.07;54.49;101772.75;6055886;23;20554;-79
2023/09/26 09:44:25;;;;;;;14.82;10.13;;;;;;;23.24;54.42;101795.84;6086489;23;20339;-82
2023/09/26 09:47:02;;;;;;;16.45;10.68;;;;;;;23.22;53.75;101747.28;6021050;23;20431;-79
2023/09/26 09:49:41;;;;;;;13.27;10.27;;;;;;;23.04;53.93;101698.97;5997336;23;20053;-80
2023/09/26 09:52:18;;;;;;;13.88;10.10;;;;;;;23.79;53.57;101777.25;6011967;23;20085;-78
2023/09/26 09:54:46;;;;;;;17.85;10.15;;;;;;;23.85;53.09;101765.63;6064786;23;20117;-80
2023/09/26 09:57:17;;;;;;;18.60;10.95;;;;;;;24.04;52.51;101759.50;6031452;23;20065;-78
2023/09/26 09:59:47;;;;;;;20.92;10.73;;;;;;;24.22;52.32;101750.00;6030048;23;20062;-80
2023/09/26 10:02:17;;;;;;;16.50;10.93;;;;;;;24.18;52.53;101736.03;6026538;23;20414;-80
2023/09/26 10:04:47;;;;;;;21.60;13.68;;;;;;;24.49;52.16;101770.91;6032171;23;20357;-80
2023/09/26 10:07:17;;;;;;;19.35;13.35;;;;;;;24.34;51.75;101707.72;6000343;23;20019;-82
2023/09/26 10:09:48;;;;;;;21.17;13.43;;;;;;;24.61;52.31;101748.59;5961975;23;20101;-81
2023/09/26 10:12:23;;;;;;;20.00;13.75;;;;;;;24.90;51.43;101758.31;6009687;23;20022;-80
2023/09/26 10:14:57;;;;;;;19.13;13.27;;;;;;;24.24;52.08;101666.56;6035798;23;20479;-79
2023/09/26 10:17:26;;;;;;;22.50;14.70;;;;;;;24.93;52.17;101756.06;6060485;23;20018;-81
2023/09/26 10:19:56;;;;;;;20.70;14.55;;;;;;;25.00;51.92;101731.63;6022390;23;20249;-80
2023/09/26 10:22:45;;;;;;;25.95;14.27;;;;;;;25.28;51.46;101750.53;6026903;23;20038;-80
2023/09/26 10:25:18;;;;;;;24.55;14.73;;;;;;;25.50;51.13;101742.19;6040351;23;20026;-80
2023/09/26 10:27:47;;;;;;;22.05;14.25;;;;;;;25.54;50.84;101724.44;6046746;23;20027;-80
2023/09/26 10:30:41;;;;;;;28.30;14.43;;;;;;;25.50;50.15;101710.41;6037440;23;20478;-81
2023/09/26 10:33:09;;;;;;;22.50;14.65;;;;;;;25.70;50.16;101710.41;6035531;23;20025;-81
2023/09/26 10:35:49;;;;;;;26.80;14.98;;;;;;;25.02;49.76;101582.84;6037032;23;20038;-81
2023/09/26 10:38:19;;;;;;;20.23;13.05;;;;;;;25.49;50.02;101637.22;6046678;23;20183;-81
2023/09/26 10:40:52;;;;;;;19.58;12.88;;;;;;;25.02;49.20;101508.66;6052546;23;20029;-81
2023/09/26 10:43:18;;;;;;;19.25;12.35;;;;;;;26.57;49.32;101742.94;6037704;23;20026;-80
2023/09/26 10:45:49;;;;;;;23.23;14.00;;;;;;;26.06;48.55;101649.28;6029370;23;20105;-79
2023/09/26 10:48:20;;;;;;;23.05;14.18;;;;;;;26.17;47.43;101632.28;6052523;23;20019;-82
2023/09/26 10:50:48;;;;;;;27.20;15.15;;;;;;;26.81;47.95;101727.75;6011410;23;20503;-81
2023/09/26 10:53:17;;;;;;;20.85;12.90;;;;;;;26.82;48.06;101729.41;6027579;23;20030;-81
2023/09/26 10:55:47;;;;;;;16.65;11.95;;;;;;;26.33;47.94;101632.84;6053663;23;20018;-81
2023/09/26 10:58:23;;;;;;;19.15;13.50;;;;;;;26.90;47.61;101720.19;6029796;23;20144;-81
2023/09/26 11:00:55;;;;;;;22.13;11.60;;;;;;;27.02;47.60;101712.97;6039690;23;20326;-82
2023/09/26 11:03:24;;;;;;;26.88;13.90;;;;;;;26.50;47.23;101598.63;6071762;23;20177;-80
2023/09/26 11:05:51;;;;;;;21.33;12.23;;;;;;;26.29;46.92;101534.47;6068131;23;20474;-81
2023/09/26 11:08:46;;;;;;;23.77;15.48;;;;;;;27.53;46.09;101713.91;6060490;23;20025;-80
2023/09/26 11:11:18;;;;;;;19.17;13.25;;;;;;;27.67;45.62;101716.31;6038290;23;20355;-80
2023/09/26 11:13:45;;;;;;;20.67;12.93;;;;;;;27.56;45.86;101669.81;6044773;23;20454;-81
2023/09/26 11:16:12;;;;;;;21.90;13.25;;;;;;;27.76;45.88;101711.38;6024430;23;20030;-80
2023/09/26 11:18:39;;;;;;;20.45;13.75;;;;;;;27.53;45.64;101675.75;6038558;23;20109;-80
2023/09/26 11:21:08;;;;;;;26.02;13.88;;;;;;;27.80;45.47;101709.06;6034584;23;20018;-81
2023/09/26 11:23:58;;;;;;;23.38;13.90;;;;;;;27.61;44.98;101667.25;6027798;23;20026;-80
2023/09/26 11:26:26;;;;;;;23.50;13.27;;;;;;;27.73;45.06;101670.09;6050593;23;20025;-80
2023/09/26 11:28:54;;;;;;;25.20;13.98;;;;;;;27.96;44.98;101702.19;6032999;23;20458;-81